< < Back
Terminal Aerodrome Forecast


Current Version              Previous Versions:   1  2  3  4  5  6  7  8  9  

Terminal Aerodrome Forecast

244
FTUS42 KGSP 010900 AAA
TAFCLT
TAF AMD
KCLT 010910Z 0109/0206 00000KT P6SM SKC
      TEMPO 0111/0113 3SM BR
     FM011300 01003KT P6SM FEW250
     FM011700 19004KT P6SM FEW050=

Latest METAR

098
SAUS70 KWBC 010956
MTRCLT
METAR KCLT 010952Z 00000KT 7SM CLR 15/14 A2995 RMK AO2 SLP134
T01500144


USA.gov is the U.S. government's official web portal to all federal, state and local government web resources and services.